Time;durP1;ratioP1;P1;durP2;ratioP2;P2;SDS_P1;SDS_P2;PMS_P1;PMS_P2;Temp;Humidity;BMP_temperature;BMP_pressure;BME280_temperature;BME280_humidity;BME280_pressure;Samples;Min_cycle;Max_cycle;Signal;HPM_P1;HPM_P2
2023/04/20 00:00:22;;;;;;;4.38;3.20;;;13.70;99.90;;;;;;5112665;28;20024;-66
2023/04/20 00:02:47;;;;;;;5.03;3.05;;;13.80;99.90;;;;;;5112324;28;20130;-67
2023/04/20 00:05:13;;;;;;;5.25;3.33;;;13.80;99.90;;;;;;5112255;28;20484;-68
2023/04/20 00:07:40;;;;;;;3.47;3.17;;;13.80;99.90;;;;;;5112192;28;20047;-68
2023/04/20 00:10:07;;;;;;;4.15;3.40;;;13.70;99.90;;;;;;5112037;28;20034;-68
2023/04/20 00:12:33;;;;;;;3.60;3.30;;;13.60;99.90;;;;;;5111727;28;20528;-68
2023/04/20 00:14:58;;;;;;;4.13;3.30;;;13.60;99.90;;;;;;5112131;28;20024;-68
2023/04/20 00:17:24;;;;;;;3.70;3.40;;;13.50;99.90;;;;;;5112120;28;20020;-67
2023/04/20 00:19:50;;;;;;;4.00;3.60;;;13.40;99.90;;;;;;5112341;28;20035;-67
2023/04/20 00:22:15;;;;;;;5.47;3.83;;;13.40;99.90;;;;;;5112015;28;20369;-67
2023/04/20 00:24:41;;;;;;;4.47;3.50;;;13.30;99.90;;;;;;5111860;28;20031;-67
2023/04/20 00:27:07;;;;;;;3.78;3.42;;;13.30;99.90;;;;;;5111605;28;20563;-67
2023/04/20 00:29:32;;;;;;;4.65;3.50;;;13.30;99.90;;;;;;5111426;28;20025;-67
2023/04/20 00:31:58;;;;;;;3.97;3.58;;;13.30;99.90;;;;;;5111879;28;20028;-67
2023/04/20 00:34:24;;;;;;;4.15;3.33;;;13.20;99.90;;;;;;5111726;28;20028;-67
2023/04/20 00:36:49;;;;;;;4.10;3.70;;;13.20;99.90;;;;;;5111899;28;20038;-67
2023/04/20 00:39:15;;;;;;;5.40;3.67;;;13.20;99.90;;;;;;5112178;28;20512;-67
2023/04/20 00:41:41;;;;;;;4.28;3.88;;;13.20;99.90;;;;;;5111328;28;20031;-66
2023/04/20 00:44:10;;;;;;;4.35;3.75;;;13.10;99.90;;;;;;5111674;28;20034;-67
2023/04/20 00:46:36;;;;;;;3.80;3.50;;;13.00;99.90;;;;;;5112140;28;20500;-68
2023/04/20 00:49:02;;;;;;;4.45;3.90;;;12.90;99.90;;;;;;5111628;28;20038;-67
2023/04/20 00:51:28;;;;;;;4.22;3.83;;;12.80;99.90;;;;;;5111384;28;20440;-67
2023/04/20 00:53:54;;;;;;;6.50;3.92;;;12.80;99.90;;;;;;5111352;28;20468;-68
2023/04/20 00:56:19;;;;;;;5.90;3.80;;;12.70;99.90;;;;;;5111674;28;20027;-67
2023/04/20 00:58:45;;;;;;;3.90;3.60;;;12.60;99.90;;;;;;5111439;28;20035;-67
2023/04/20 01:01:12;;;;;;;5.38;3.85;;;12.60;99.90;;;;;;5111897;28;20024;-67
2023/04/20 01:03:41;;;;;;;4.20;3.75;;;12.60;99.90;;;;;;5111605;28;20024;-67
2023/04/20 01:06:07;;;;;;;4.40;4.00;;;12.50;99.90;;;;;;5111331;28;20124;-67
2023/04/20 01:08:33;;;;;;;4.32;3.92;;;12.40;99.90;;;;;;5111098;28;20024;-68
2023/04/20 01:10:59;;;;;;;4.22;3.83;;;12.30;99.90;;;;;;5111146;28;20031;-67
2023/04/20 01:13:24;;;;;;;4.55;4.15;;;12.30;99.90;;;;;;5111448;28;20026;-67
2023/04/20 01:15:50;;;;;;;4.38;3.70;;;12.30;99.90;;;;;;5111460;28;20032;-67
2023/04/20 01:18:18;;;;;;;5.13;3.70;;;12.20;99.90;;;;;;5111967;28;20108;-67
2023/04/20 01:20:45;;;;;;;4.93;4.18;;;12.20;99.90;;;;;;5111301;28;20023;-67
2023/04/20 01:23:11;;;;;;;5.95;4.43;;;12.10;99.90;;;;;;5111179;28;20031;-67
2023/04/20 01:25:37;;;;;;;4.35;3.95;;;12.00;99.90;;;;;;5111368;28;20437;-66
2023/04/20 01:28:03;;;;;;;4.82;4.35;;;12.00;99.90;;;;;;5111378;28;20090;-67
2023/04/20 01:30:30;;;;;;;5.18;4.68;;;11.90;99.90;;;;;;5111696;28;20047;-67
2023/04/20 01:32:55;;;;;;;4.82;4.30;;;11.90;99.90;;;;;;5111300;28;20069;-67
2023/04/20 01:35:21;;;;;;;7.28;4.30;;;11.80;99.90;;;;;;5111088;28;20373;-67
2023/04/20 01:37:47;;;;;;;5.57;4.53;;;11.70;99.90;;;;;;5110989;28;20046;-66
2023/04/20 01:40:13;;;;;;;5.15;4.65;;;11.70;99.90;;;;;;5112143;28;20506;-67
2023/04/20 01:42:39;;;;;;;5.35;4.60;;;11.60;99.90;;;;;;5115420;28;20019;-67
2023/04/20 01:45:06;;;;;;;5.35;4.85;;;11.60;99.90;;;;;;5115047;28;20063;-67
2023/04/20 01:47:32;;;;;;;6.10;4.78;;;11.60;99.90;;;;;;5114825;28;20447;-67
2023/04/20 01:49:58;;;;;;;4.68;4.15;;;11.50;99.90;;;;;;5114828;28;20514;-67
2023/04/20 01:52:24;;;;;;;5.03;4.55;;;11.50;99.90;;;;;;5114773;28;20015;-67
2023/04/20 01:54:50;;;;;;;5.60;4.82;;;11.40;99.90;;;;;;5114867;28;20399;-67
2023/04/20 01:57:15;;;;;;;5.00;4.60;;;11.40;99.90;;;;;;5115200;28;20407;-67
2023/04/20 01:59:41;;;;;;;6.07;4.97;;;11.40;99.90;;;;;;5114686;28;20038;-67
2023/04/20 02:02:07;;;;;;;5.65;5.15;;;11.30;99.90;;;;;;5114706;28;20114;-67
2023/04/20 02:04:32;;;;;;;5.93;4.80;;;11.30;99.90;;;;;;5114512;28;20028;-67
2023/04/20 02:06:58;;;;;;;5.95;4.95;;;11.20;99.90;;;;;;5114290;28;20036;-67
2023/04/20 02:09:24;;;;;;;5.78;5.15;;;11.20;99.90;;;;;;5114320;28;20031;-67
2023/04/20 02:11:49;;;;;;;8.40;4.95;;;11.20;99.90;;;;;;5114366;28;20048;-67
2023/04/20 02:14:15;;;;;;;5.88;5.28;;;11.10;99.90;;;;;;5114506;28;20072;-67
2023/04/20 02:16:41;;;;;;;5.85;5.25;;;11.10;99.90;;;;;;5114456;28;20085;-67
2023/04/20 02:19:07;;;;;;;5.55;5.00;;;11.10;99.90;;;;;;5114256;28;20106;-66
2023/04/20 02:21:33;;;;;;;5.50;4.97;;;11.00;99.90;;;;;;5114005;28;20020;-66
2023/04/20 02:23:59;;;;;;;5.75;5.20;;;11.00;99.90;;;;;;5114780;28;20080;-67
2023/04/20 02:26:25;;;;;;;5.57;5.07;;;11.00;99.90;;;;;;5114040;28;20432;-67
2023/04/20 02:28:51;;;;;;;5.63;5.00;;;10.90;99.90;;;;;;5113996;28;20042;-67
2023/04/20 02:31:17;;;;;;;6.28;5.07;;;10.90;99.90;;;;;;5114129;28;20028;-67
2023/04/20 02:33:43;;;;;;;5.47;4.97;;;10.80;99.90;;;;;;5113894;28;20484;-67
2023/04/20 02:36:08;;;;;;;6.25;5.38;;;10.70;99.90;;;;;;5114071;28;20020;-67
2023/04/20 02:38:34;;;;;;;6.32;5.22;;;10.70;99.90;;;;;;5113939;28;20020;-67
2023/04/20 02:41:00;;;;;;;8.40;5.43;;;10.70;99.90;;;;;;5113959;28;20027;-67
2023/04/20 02:43:26;;;;;;;5.90;5.32;;;10.70;99.90;;;;;;5113888;28;20046;-67
2023/04/20 02:45:51;;;;;;;6.22;5.60;;;10.60;99.90;;;;;;5113792;28;20058;-66
2023/04/20 02:48:17;;;;;;;6.82;5.38;;;10.60;99.90;;;;;;5114033;27;20024;-67
2023/04/20 02:50:43;;;;;;;6.57;5.15;;;10.50;99.90;;;;;;5113434;28;20107;-67
2023/04/20 02:53:08;;;;;;;6.95;5.68;;;10.50;99.90;;;;;;5112682;28;20084;-67
2023/04/20 02:55:34;;;;;;;8.15;5.32;;;10.50;99.90;;;;;;5095368;28;20032;-66
2023/04/20 02:58:00;;;;;;;6.22;5.47;;;10.50;99.90;;;;;;5113955;28;20023;-67
2023/04/20 03:00:25;;;;;;;6.45;5.55;;;10.40;99.90;;;;;;5113472;28;20028;-67
2023/04/20 03:02:51;;;;;;;5.90;5.22;;;10.40;99.90;;;;;;5113392;28;20031;-67
2023/04/20 03:05:17;;;;;;;6.90;6.10;;;10.40;99.90;;;;;;5113560;28;20087;-67
2023/04/20 03:07:43;;;;;;;6.78;5.72;;;10.40;99.90;;;;;;5113223;28;20026;-67
2023/04/20 03:10:09;;;;;;;6.20;5.65;;;10.40;99.90;;;;;;5113299;28;20023;-66
2023/04/20 03:12:35;;;;;;;6.80;5.55;;;10.40;99.90;;;;;;5113168;28;20075;-66
2023/04/20 03:15:03;;;;;;;7.97;5.32;;;10.40;99.90;;;;;;5113238;28;20808;-67
2023/04/20 03:17:28;;;;;;;6.47;5.88;;;10.40;99.90;;;;;;5113094;28;20023;-67
2023/04/20 03:19:55;;;;;;;6.35;5.53;;;10.50;99.90;;;;;;5113240;28;20511;-66
2023/04/20 03:22:21;;;;;;;6.10;5.50;;;10.50;99.90;;;;;;5113066;28;20061;-67
2023/04/20 03:24:46;;;;;;;5.90;5.30;;;10.40;99.90;;;;;;5113005;28;20035;-67
2023/04/20 03:27:13;;;;;;;5.95;5.25;;;10.30;99.90;;;;;;5113000;28;20020;-67
2023/04/20 03:29:38;;;;;;;5.82;5.32;;;10.30;99.90;;;;;;5113130;28;20483;-67
2023/04/20 03:32:04;;;;;;;6.43;5.50;;;10.30;99.90;;;;;;5112833;28;20031;-67
2023/04/20 03:34:30;;;;;;;6.30;5.60;;;10.20;99.90;;;;;;5112600;28;20345;-66
2023/04/20 03:36:56;;;;;;;6.25;5.50;;;10.20;99.90;;;;;;5112696;28;20450;-67
2023/04/20 03:39:22;;;;;;;8.27;5.72;;;10.20;99.90;;;;;;5112813;28;20031;-67
2023/04/20 03:41:48;;;;;;;7.55;5.72;;;10.20;99.90;;;;;;5094843;28;20030;-67
2023/04/20 03:44:14;;;;;;;6.88;5.80;;;10.10;99.90;;;;;;5112603;28;20084;-66
2023/04/20 03:46:40;;;;;;;6.72;5.60;;;10.10;99.90;;;;;;5112551;28;20035;-67
2023/04/20 03:49:05;;;;;;;7.35;5.75;;;10.10;99.90;;;;;;5112130;28;20029;-67
2023/04/20 03:51:31;;;;;;;6.65;6.03;;;10.00;99.90;;;;;;5112570;28;20027;-67
2023/04/20 03:53:57;;;;;;;7.53;5.57;;;10.00;99.90;;;;;;5112541;28;20034;-67
2023/04/20 03:56:23;;;;;;;5.85;5.25;;;10.00;99.90;;;;;;5112782;28;20087;-67
2023/04/20 03:58:48;;;;;;;5.93;5.40;;;10.10;99.90;;;;;;5112433;28;20024;-66
2023/04/20 04:01:14;;;;;;;6.35;5.75;;;10.00;99.90;;;;;;5112355;28;20024;-67
2023/04/20 04:03:40;;;;;;;7.07;6.28;;;9.90;99.90;;;;;;5111957;28;20478;-66
2023/04/20 04:06:06;;;;;;;6.75;5.95;;;9.90;99.90;;;;;;5112322;28;20253;-67
2023/04/20 04:08:32;;;;;;;6.70;6.00;;;9.90;99.90;;;;;;5112457;28;20039;-66
2023/04/20 04:10:59;;;;;;;7.25;5.80;;;9.90;99.90;;;;;;5112032;28;20032;-67
2023/04/20 04:13:24;;;;;;;7.05;6.00;;;9.90;99.90;;;;;;5112166;28;20038;-67
2023/04/20 04:15:50;;;;;;;7.70;5.88;;;9.90;99.90;;;;;;5112126;28;20055;-66
2023/04/20 04:18:16;;;;;;;7.30;5.55;;;9.90;99.90;;;;;;5112043;28;20428;-67
2023/04/20 04:20:41;;;;;;;8.38;5.90;;;9.80;99.90;;;;;;5111951;28;20030;-66
2023/04/20 04:23:07;;;;;;;6.35;5.75;;;9.80;99.90;;;;;;5112063;28;20051;-67
2023/04/20 04:25:36;;;;;;;6.45;5.85;;;9.70;99.90;;;;;;5112226;28;20403;-67
2023/04/20 04:28:02;;;;;;;7.65;5.90;;;9.70;99.90;;;;;;5112054;28;20035;-67
2023/04/20 04:30:28;;;;;;;6.00;5.43;;;9.70;99.90;;;;;;5111687;28;20028;-67
2023/04/20 04:32:54;;;;;;;10.60;6.18;;;9.80;99.90;;;;;;5111462;28;20048;-66
2023/04/20 04:35:20;;;;;;;8.15;6.72;;;9.80;99.90;;;;;;5111771;28;20530;-66
2023/04/20 04:37:46;;;;;;;7.65;6.90;;;9.70;99.90;;;;;;5112019;28;20055;-67
2023/04/20 04:40:12;;;;;;;10.02;6.78;;;9.60;99.90;;;;;;5111549;28;20031;-66
2023/04/20 04:42:38;;;;;;;7.45;6.70;;;9.60;99.90;;;;;;5112216;28;20392;-67
2023/04/20 04:45:04;;;;;;;6.60;6.00;;;9.60;99.90;;;;;;5111578;28;20433;-66
2023/04/20 04:47:36;;;;;;;7.35;6.07;;;9.60;99.90;;;;;;5111339;28;20019;-67
2023/04/20 04:50:05;;;;;;;9.35;6.63;;;9.60;99.90;;;;;;5111944;28;20028;-67
2023/04/20 04:52:32;;;;;;;7.30;6.53;;;9.60;99.90;;;;;;5111720;28;20504;-66
2023/04/20 04:54:58;;;;;;;7.72;6.65;;;9.60;99.90;;;;;;5111725;28;20100;-67
2023/04/20 04:57:24;;;;;;;9.73;8.10;;;9.70;99.90;;;;;;5111523;28;20044;-67
2023/04/20 04:59:50;;;;;;;11.00;8.20;;;9.70;99.90;;;;;;5111941;28;20027;-66
2023/04/20 05:02:16;;;;;;;12.85;9.30;;;9.60;99.90;;;;;;5111234;28;20043;-66
2023/04/20 05:04:41;;;;;;;12.55;8.77;;;9.50;99.90;;;;;;5111474;28;20031;-67
2023/04/20 05:07:09;;;;;;;11.40;8.70;;;9.40;99.90;;;;;;5111483;28;20027;-67
2023/04/20 05:09:35;;;;;;;11.43;8.60;;;9.50;99.90;;;;;;5111610;28;20119;-66
2023/04/20 05:12:02;;;;;;;9.32;7.55;;;9.50;99.90;;;;;;5111256;28;20126;-66
2023/04/20 05:14:30;;;;;;;9.52;7.45;;;9.60;99.90;;;;;;5111380;28;20035;-66
2023/04/20 05:16:57;;;;;;;7.70;7.00;;;9.50;99.90;;;;;;5114977;28;20055;-67
2023/04/20 05:19:23;;;;;;;13.23;8.35;;;9.50;99.90;;;;;;5115462;28;20549;-67
2023/04/20 05:21:48;;;;;;;11.30;8.75;;;9.50;99.90;;;;;;5115995;28;20023;-67
2023/04/20 05:24:14;;;;;;;10.38;8.55;;;9.40;99.90;;;;;;5115255;28;20392;-66
2023/04/20 05:26:40;;;;;;;12.45;8.77;;;9.50;99.90;;;;;;5115453;28;20031;-66
2023/04/20 05:29:05;;;;;;;14.90;8.65;;;9.50;99.90;;;;;;5115111;28;20066;-66
2023/04/20 05:31:32;;;;;;;14.80;8.75;;;9.50;99.90;;;;;;5115321;28;20506;-66
2023/04/20 05:33:58;;;;;;;15.05;9.50;;;9.50;99.90;;;;;;5115376;28;20455;-66
2023/04/20 05:36:23;;;;;;;11.90;9.82;;;9.60;99.90;;;;;;5115120;28;20035;-66
2023/04/20 05:38:49;;;;;;;11.88;10.25;;;9.60;99.90;;;;;;5114936;28;20069;-66
2023/04/20 05:41:15;;;;;;;13.15;10.32;;;9.70;99.90;;;;;;5115072;28;20027;-66
2023/04/20 05:43:40;;;;;;;13.43;10.20;;;9.70;99.90;;;;;;5115035;28;20035;-66
2023/04/20 05:46:06;;;;;;;15.38;9.73;;;9.70;99.90;;;;;;5114796;28;20057;-66
2023/04/20 05:48:32;;;;;;;11.88;9.82;;;9.80;99.90;;;;;;5115131;28;20027;-66
2023/04/20 05:50:57;;;;;;;13.23;10.10;;;9.80;99.90;;;;;;5115072;28;20031;-66
2023/04/20 05:53:23;;;;;;;13.68;10.15;;;9.90;99.90;;;;;;5114831;28;20032;-66
2023/04/20 05:55:49;;;;;;;13.65;8.85;;;10.00;99.90;;;;;;5114695;28;20031;-67
2023/04/20 05:58:15;;;;;;;14.00;8.60;;;10.20;99.90;;;;;;5114674;28;20031;-66
2023/04/20 06:00:41;;;;;;;13.95;8.52;;;10.20;99.90;;;;;;5114732;28;20503;-66
2023/04/20 06:03:07;;;;;;;16.02;8.45;;;10.30;99.90;;;;;;5114693;28;20024;-66
2023/04/20 06:05:32;;;;;;;15.32;8.40;;;10.30;99.90;;;;;;5096211;28;20181;-66
2023/04/20 06:07:58;;;;;;;15.57;8.18;;;10.40;99.90;;;;;;5114476;28;20035;-66
2023/04/20 06:10:24;;;;;;;12.95;7.30;;;10.50;99.90;;;;;;5114797;28;20020;-67
2023/04/20 06:12:50;;;;;;;9.95;7.18;;;10.60;99.90;;;;;;5114476;28;20462;-66
2023/04/20 06:15:16;;;;;;;10.65;6.50;;;10.80;99.90;;;;;;5114500;28;20027;-66
2023/04/20 06:17:41;;;;;;;11.00;6.20;;;10.90;99.90;;;;;;5114403;28;20415;-67
2023/04/20 06:20:10;;;;;;;7.82;6.82;;;10.90;99.90;;;;;;5114314;28;20034;-67
2023/04/20 06:22:41;;;;;;;14.35;6.63;;;11.00;99.90;;;;;;5114749;28;20440;-66
2023/04/20 06:25:07;;;;;;;10.63;6.25;;;11.10;99.90;;;;;;5114031;28;20372;-66
2023/04/20 06:27:33;;;;;;;14.68;6.88;;;11.20;99.90;;;;;;5112556;28;20044;-67
2023/04/20 06:29:58;;;;;;;9.73;5.95;;;11.30;99.90;;;;;;5114147;28;20082;-66
2023/04/20 06:32:24;;;;;;;8.30;4.43;;;11.40;99.90;;;;;;5114088;28;20023;-67
2023/04/20 06:34:51;;;;;;;6.70;4.40;;;11.50;99.90;;;;;;5114030;28;20035;-68
2023/04/20 06:37:17;;;;;;;8.63;4.30;;;11.60;99.90;;;;;;5114427;28;20098;-67
2023/04/20 06:39:43;;;;;;;4.68;4.10;;;11.70;99.90;;;;;;5113966;28;20031;-66
2023/04/20 06:42:08;;;;;;;5.95;4.13;;;11.70;99.90;;;;;;5113577;28;20019;-66
2023/04/20 06:44:34;;;;;;;5.00;3.80;;;11.80;99.90;;;;;;5113872;28;20088;-67
2023/04/20 06:47:00;;;;;;;6.13;3.72;;;11.80;99.90;;;;;;5113878;28;20019;-66
2023/04/20 06:49:26;;;;;;;7.18;3.83;;;11.80;99.90;;;;;;5113676;28;20078;-66
2023/04/20 06:51:51;;;;;;;5.15;4.05;;;11.80;99.90;;;;;;5113810;28;20039;-67
2023/04/20 06:54:17;;;;;;;4.40;3.70;;;11.80;99.90;;;;;;5113558;28;20024;-66
2023/04/20 06:56:43;;;;;;;5.30;3.97;;;11.90;99.90;;;;;;5113745;28;20080;-67
2023/04/20 06:59:08;;;;;;;5.75;3.90;;;12.00;99.90;;;;;;5095293;28;20050;-66
2023/04/20 07:01:34;;;;;;;6.82;4.10;;;12.00;99.90;;;;;;5113532;28;20020;-67
2023/04/20 07:04:00;;;;;;;4.47;4.03;;;12.10;99.90;;;;;;5113577;28;20027;-66
2023/04/20 07:06:27;;;;;;;5.25;3.70;;;12.00;99.90;;;;;;5113259;28;20800;-66
2023/04/20 07:08:52;;;;;;;5.13;4.13;;;12.10;99.90;;;;;;5113317;28;20059;-67
2023/04/20 07:11:18;;;;;;;8.55;3.92;;;12.20;99.90;;;;;;5112948;28;20498;-66
2023/04/20 07:13:44;;;;;;;4.95;4.15;;;12.30;99.90;;;;;;5113370;28;20030;-66
2023/04/20 07:16:10;;;;;;;5.93;4.30;;;12.30;99.90;;;;;;5113227;28;20027;-66
2023/04/20 07:18:35;;;;;;;4.93;4.00;;;12.40;99.90;;;;;;5113675;28;20035;-66
2023/04/20 07:21:01;;;;;;;5.97;4.20;;;12.40;99.90;;;;;;5113190;28;20031;-66
2023/04/20 07:23:27;;;;;;;5.32;4.43;;;12.50;99.90;;;;;;5113021;28;20028;-66
2023/04/20 07:25:53;;;;;;;6.93;4.20;;;12.60;99.90;;;;;;5113015;28;20134;-65
2023/04/20 07:28:19;;;;;;;6.80;4.00;;;12.70;99.90;;;;;;5112908;28;20023;-65
2023/04/20 07:30:44;;;;;;;5.93;4.50;;;12.90;99.90;;;;;;5113075;28;20032;-66
2023/04/20 07:33:10;;;;;;;5.40;4.25;;;13.00;99.90;;;;;;5113115;28;20020;-66
2023/04/20 07:35:36;;;;;;;3.88;3.58;;;13.10;99.90;;;;;;5113111;28;20456;-66
2023/04/20 07:38:02;;;;;;;7.47;4.15;;;13.20;99.90;;;;;;5112381;28;20059;-66
2023/04/20 07:40:27;;;;;;;6.30;4.40;;;13.30;99.90;;;;;;5112762;28;20043;-65
2023/04/20 07:42:53;;;;;;;4.30;3.85;;;13.30;99.90;;;;;;5112742;28;20412;-65
2023/04/20 07:45:20;;;;;;;8.15;4.20;;;13.30;99.90;;;;;;5112711;28;20392;-65
2023/04/20 07:47:50;;;;;;;4.80;4.05;;;13.30;99.90;;;;;;5113097;28;20031;-66
2023/04/20 07:50:16;;;;;;;8.27;4.05;;;13.20;99.90;;;;;;5112115;28;20028;-66
2023/04/20 07:52:43;;;;;;;7.47;4.55;;;13.30;99.90;;;;;;5112684;28;20026;-66
2023/04/20 07:55:16;;;;;;;8.75;4.13;;;13.50;99.90;;;;;;5112479;28;20050;-65
2023/04/20 07:57:41;;;;;;;6.93;4.50;;;13.50;99.90;;;;;;5112477;28;20027;-68
2023/04/20 08:00:08;;;;;;;6.18;3.85;;;13.50;99.90;;;;;;5112103;28;20031;-66
2023/04/20 08:02:34;;;;;;;10.35;4.28;;;13.50;99.90;;;;;;5112487;28;20054;-66
2023/04/20 08:05:02;;;;;;;6.07;4.00;;;13.70;99.90;;;;;;5112254;28;20055;-67
2023/04/20 08:07:27;;;;;;;5.88;4.05;;;13.80;99.90;;;;;;5111899;28;20035;-67
2023/04/20 08:09:53;;;;;;;6.68;4.47;;;13.80;99.90;;;;;;5112275;28;20019;-66
2023/04/20 08:12:19;;;;;;;8.93;4.82;;;13.90;99.90;;;;;;5112077;28;20090;-66
2023/04/20 08:14:44;;;;;;;6.82;4.60;;;14.00;99.90;;;;;;5112140;28;20027;-67
2023/04/20 08:17:11;;;;;;;5.53;4.57;;;14.20;99.90;;;;;;5112059;28;20060;-66
2023/04/20 08:19:37;;;;;;;5.90;4.32;;;14.20;99.90;;;;;;5111101;28;20511;-67
2023/04/20 08:22:04;;;;;;;6.75;4.35;;;14.40;99.90;;;;;;5111403;28;20027;-67
2023/04/20 08:24:31;;;;;;;7.43;4.70;;;14.40;99.90;;;;;;5112060;28;20015;-76
2023/04/20 08:26:58;;;;;;;5.95;4.40;;;14.60;99.90;;;;;;5111814;28;20039;-80
2023/04/20 08:29:24;;;;;;;5.03;4.32;;;14.50;99.90;;;;;;5112275;28;20490;-80
2023/04/20 08:31:50;;;;;;;5.97;4.60;;;14.50;99.90;;;;;;5111252;28;20103;-79
2023/04/20 08:34:16;;;;;;;6.53;4.60;;;14.70;99.90;;;;;;5111493;28;20444;-80
2023/04/20 08:36:42;;;;;;;5.07;4.13;;;14.80;99.90;;;;;;5111955;28;20038;-81
2023/04/20 08:39:11;;;;;;;5.72;5.13;;;14.80;99.90;;;;;;5110889;28;20544;-80
2023/04/20 08:41:36;;;;;;;5.65;4.70;;;14.90;99.90;;;;;;5113081;28;20169;-80
2023/04/20 08:44:02;;;;;;;5.82;4.85;;;15.00;99.90;;;;;;5111937;28;20515;-82
2023/04/20 08:46:29;;;;;;;6.30;3.88;;;14.90;99.90;;;;;;5112282;28;20039;-81
2023/04/20 08:48:55;;;;;;;5.40;4.45;;;15.00;99.90;;;;;;5111964;28;20125;-77
2023/04/20 08:51:21;;;;;;;147.60;59.88;;;15.10;99.90;;;;;;5111201;28;20038;-81
2023/04/20 08:53:47;;;;;;;172.77;110.10;;;15.30;99.90;;;;;;5111740;28;20015;-78
2023/04/20 08:56:13;;;;;;;40.42;24.73;;;15.40;99.90;;;;;;5111931;28;20028;-79
2023/04/20 08:58:41;;;;;;;11.52;6.78;;;15.40;99.90;;;;;;5111544;28;20028;-78
2023/04/20 09:01:09;;;;;;;5.35;4.50;;;15.40;99.90;;;;;;5111910;28;20116;-78
2023/04/20 09:03:36;;;;;;;7.78;4.40;;;15.30;99.90;;;;;;5110798;28;20038;-79
2023/04/20 09:06:03;;;;;;;5.60;4.57;;;15.40;99.90;;;;;;5111619;28;20039;-79
2023/04/20 09:08:40;;;;;;;5.38;4.47;;;15.50;99.90;;;;;;5111498;28;20028;-78
2023/04/20 09:11:06;;;;;;;6.18;3.95;;;15.60;99.90;;;;;;5111938;28;20031;-77
2023/04/20 09:13:32;;;;;;;5.30;4.20;;;15.70;99.90;;;;;;5112334;28;20047;-78
2023/04/20 09:16:12;;;;;;;17.63;7.95;;;15.80;99.90;;;;;;5111718;28;20391;-78
2023/04/20 09:18:38;;;;;;;7.28;4.85;;;15.90;99.90;;;;;;5111372;28;20020;-79
2023/04/20 09:21:11;;;;;;;7.43;5.53;;;16.00;99.90;;;;;;5111627;28;20024;-80
2023/04/20 09:23:36;;;;;;;7.80;5.20;;;16.00;99.90;;;;;;5111849;28;20031;-79
2023/04/20 09:26:03;;;;;;;10.10;6.43;;;16.10;99.90;;;;;;5112472;28;20054;-80
2023/04/20 09:28:39;;;;;;;9.45;6.57;;;16.10;99.90;;;;;;5111051;28;20027;-79
2023/04/20 09:31:04;;;;;;;8.13;4.97;;;16.10;99.90;;;;;;5112054;28;20409;-79
2023/04/20 09:33:32;;;;;;;9.43;5.78;;;16.20;99.90;;;;;;5111350;28;20108;-78
2023/04/20 09:36:04;;;;;;;8.70;5.18;;;16.30;99.90;;;;;;5111104;28;20075;-78
2023/04/20 09:38:30;;;;;;;9.88;5.32;;;16.50;99.90;;;;;;5111441;28;20032;-79
2023/04/20 09:41:01;;;;;;;11.32;6.78;;;16.50;99.90;;;;;;5111325;28;20023;-79
2023/04/20 09:43:28;;;;;;;20.20;15.05;;;16.60;99.90;;;;;;5111561;28;20504;-80
2023/04/20 09:45:55;;;;;;;27.60;20.30;;;16.70;99.90;;;;;;5113214;28;20404;-79
2023/04/20 09:48:21;;;;;;;14.88;11.73;;;16.70;99.90;;;;;;5113144;28;20024;-79
2023/04/20 09:50:47;;;;;;;7.72;7.03;;;16.80;99.90;;;;;;5111858;28;20152;-80
2023/04/20 09:53:17;;;;;;;10.98;9.57;;;16.80;99.90;;;;;;5111831;28;20054;-80
2023/04/20 09:55:50;;;;;;;8.57;5.75;;;17.00;99.90;;;;;;5111616;28;20016;-81
2023/04/20 09:58:18;;;;;;;7.03;6.33;;;17.10;99.90;;;;;;5111244;28;20811;-80
2023/04/20 10:00:44;;;;;;;6.30;5.57;;;17.30;99.90;;;;;;5111541;28;20023;-80
2023/04/20 10:03:11;;;;;;;7.03;5.80;;;17.40;99.90;;;;;;5115248;28;20027;-79
2023/04/20 10:05:38;;;;;;;6.97;5.03;;;17.60;99.90;;;;;;5114270;28;20513;-81
2023/04/20 10:08:05;;;;;;;6.57;5.95;;;17.80;99.90;;;;;;5115448;28;20069;-81
2023/04/20 10:10:42;;;;;;;7.60;5.38;;;17.70;99.90;;;;;;5115466;28;20036;-79
2023/04/20 10:13:08;;;;;;;5.30;4.80;;;17.70;99.90;;;;;;5114625;28;20081;-81
2023/04/20 10:15:38;;;;;;;5.97;4.85;;;17.80;99.90;;;;;;5114715;28;20496;-80
2023/04/20 10:18:25;;;;;;;5.53;4.30;;;17.80;99.90;;;;;;5114548;28;20402;-80
2023/04/20 10:21:02;;;;;;;8.73;5.10;;;18.00;99.90;;;;;;5113800;28;20033;-79
2023/04/20 10:23:28;;;;;;;5.90;5.13;;;18.10;99.90;;;;;;5114176;28;20031;-78
2023/04/20 10:25:56;;;;;;;6.88;4.90;;;18.10;99.90;;;;;;5096329;28;20400;-80
2023/04/20 10:28:21;;;;;;;6.85;5.50;;;18.30;99.90;;;;;;5114188;28;20593;-78
2023/04/20 10:30:51;;;;;;;6.35;4.50;;;18.40;99.90;;;;;;5114626;28;20024;-80
2023/04/20 10:33:17;;;;;;;4.75;4.28;;;18.50;99.90;;;;;;5114179;28;20388;-79
2023/04/20 10:35:53;;;;;;;4.78;4.32;;;18.50;99.90;;;;;;5113934;28;20027;-79
2023/04/20 10:38:33;;;;;;;5.97;3.83;;;18.60;99.90;;;;;;5113965;28;20027;-79
2023/04/20 10:41:10;;;;;;;5.30;3.72;;;18.80;99.90;;;;;;5114089;28;20514;-78
2023/04/20 10:43:40;;;;;;;4.25;3.85;;;18.80;99.90;;;;;;5114306;28;20027;-79
2023/04/20 10:46:14;;;;;;;4.47;4.07;;;18.80;99.90;;;;;;5113426;28;20419;-77
2023/04/20 10:49:00;;;;;;;5.70;3.90;;;18.90;99.90;;;;;;5113634;28;20035;-78
2023/04/20 10:51:26;;;;;;;5.30;4.05;;;19.10;99.90;;;;;;5113943;27;20028;-79
2023/04/20 10:54:04;;;;;;;5.03;4.15;;;19.20;99.90;;;;;;5097121;28;20028;-79
2023/04/20 10:56:44;;;;;;;4.38;3.67;;;;;;;;;;5113787;28;20028;-77
2023/04/20 10:59:17;;;;;;;4.15;3.30;;;19.30;99.90;;;;;;5113545;28;20061;-79
2023/04/20 11:01:43;;;;;;;6.30;3.60;;;19.50;99.90;;;;;;5113222;28;20080;-77
2023/04/20 11:04:10;;;;;;;3.30;3.00;;;19.60;99.90;;;;;;5113597;28;20269;-78
2023/04/20 11:06:39;;;;;;;3.72;3.00;;;19.50;99.90;;;;;;5113668;28;20041;-77
2023/04/20 11:09:17;;;;;;;3.80;3.20;;;19.70;99.90;;;;;;5113279;28;20552;-76
2023/04/20 11:11:43;;;;;;;3.50;3.20;;;19.80;99.90;;;;;;5112830;28;20058;-77
2023/04/20 11:14:11;;;;;;;4.65;3.20;;;19.80;99.90;;;;;;5111763;28;20024;-78
2023/04/20 11:16:37;;;;;;;5.20;2.72;;;19.80;99.90;;;;;;5113681;28;20162;-79
2023/04/20 11:19:03;;;;;;;3.35;2.80;;;19.90;99.90;;;;;;5112945;28;20032;-78
2023/04/20 11:21:47;;;;;;;3.75;3.45;;;19.90;99.90;;;;;;5094787;28;20026;-79
2023/04/20 11:24:21;;;;;;;4.95;3.40;;;19.80;99.90;;;;;;5113343;28;20031;-79
2023/04/20 11:26:52;;;;;;;6.40;3.72;;;20.00;99.90;;;;;;5112602;28;20054;-77
2023/04/20 11:29:35;;;;;;;8.27;4.43;;;20.10;99.90;;;;;;5113384;28;20019;-79
2023/04/20 11:32:03;;;;;;;5.03;3.87;;;20.10;99.90;;;;;;5113334;28;20020;-79
2023/04/20 11:34:29;;;;;;;5.63;4.10;;;20.10;99.90;;;;;;5112865;28;20462;-79
2023/04/20 11:36:59;;;;;;;6.18;3.80;;;20.20;99.90;;;;;;5113177;28;20028;-78
2023/04/20 11:39:28;;;;;;;5.45;3.90;;;20.20;99.90;;;;;;5113002;28;20426;-78
2023/04/20 11:41:56;;;;;;;5.68;4.07;;;20.30;99.90;;;;;;5113239;28;20458;-78
2023/04/20 11:44:24;;;;;;;6.10;4.10;;;20.70;99.90;;;;;;5112923;28;20055;-77
2023/04/20 11:46:53;;;;;;;6.88;4.20;;;20.50;99.90;;;;;;5112335;28;20039;-76
2023/04/20 11:49:20;;;;;;;6.13;4.32;;;20.40;99.90;;;;;;5112642;28;20085;-75
2023/04/20 11:51:46;;;;;;;6.47;4.22;;;20.60;99.90;;;;;;5112605;28;20081;-75
2023/04/20 11:54:12;;;;;;;8.13;4.45;;;20.60;99.90;;;;;;5112455;28;20030;-74
2023/04/20 11:56:40;;;;;;;6.00;4.20;;;20.70;99.90;;;;;;5112194;28;20019;-75
2023/04/20 11:59:07;;;;;;;4.97;3.95;;;20.80;99.90;;;;;;5112688;28;20118;-76
2023/04/20 12:01:33;;;;;;;5.22;4.20;;;20.70;99.90;;;;;;5112024;28;20019;-76
2023/04/20 12:04:02;;;;;;;4.57;3.70;;;20.70;99.90;;;;;;5112668;28;20115;-76
2023/04/20 12:06:28;;;;;;;6.43;4.10;;;20.80;99.90;;;;;;5112254;28;20090;-75
2023/04/20 12:08:55;;;;;;;5.38;3.95;;;20.90;99.90;;;;;;5112717;28;20031;-75
2023/04/20 12:11:21;;;;;;;6.40;3.88;;;20.90;99.90;;;;;;5112644;28;20046;-75
2023/04/20 12:13:47;;;;;;;9.23;4.13;;;21.00;99.90;;;;;;5094483;28;20028;-75
2023/04/20 12:16:13;;;;;;;12.20;4.70;;;20.90;99.90;;;;;;5112648;28;20032;-75
2023/04/20 12:18:40;;;;;;;7.05;4.00;;;;;;;;;;5112680;28;20080;-76
2023/04/20 12:21:06;;;;;;;7.05;4.07;;;21.50;99.90;;;;;;5112537;28;20408;-75
2023/04/20 12:23:32;;;;;;;5.95;4.18;;;21.30;99.90;;;;;;5112320;28;20034;-76
2023/04/20 12:25:58;;;;;;;7.05;4.07;;;21.30;99.90;;;;;;5112554;28;20035;-76
2023/04/20 12:28:23;;;;;;;6.43;4.00;;;21.30;99.90;;;;;;5112601;28;20024;-78
2023/04/20 12:30:49;;;;;;;6.05;4.05;;;21.50;99.90;;;;;;5112416;28;20083;-77
2023/04/20 12:33:15;;;;;;;5.72;3.97;;;21.50;99.90;;;;;;5093659;28;20483;-76
2023/04/20 12:35:42;;;;;;;4.30;3.60;;;21.60;99.90;;;;;;5110993;28;20046;-76
2023/04/20 12:38:08;;;;;;;5.57;3.42;;;21.60;99.90;;;;;;5111840;28;20092;-79
2023/04/20 12:40:34;;;;;;;11.80;8.05;;;21.90;99.90;;;;;;5112265;28;20023;-79
2023/04/20 12:43:00;;;;;;;3.92;3.45;;;21.90;99.90;;;;;;5113028;28;20487;-76
2023/04/20 12:45:25;;;;;;;6.75;4.25;;;21.90;99.90;;;;;;5113781;28;20036;-83